sensor_id;sensor_type;location;lat;lon;timestamp;pressure;altitude;pressure_sealevel;temperature;humidity
74441;BME280;62870;54.692;25.284;2022-10-01T00:03:39;1027.5;;;9.3;72.1
74441;BME280;62870;54.692;25.284;2022-10-01T00:09:05;1027.5;;;9.4;71.1
74441;BME280;62870;54.692;25.284;2022-10-01T00:14:15;1027.4;;;9.4;71
74441;BME280;62870;54.692;25.284;2022-10-01T00:18:29;1027.4;;;9.4;71
74441;BME280;62870;54.692;25.284;2022-10-01T00:23:55;1027.4;;;9.6;70.9
74441;BME280;62870;54.692;25.284;2022-10-01T00:29:17;1027.4;;;9.8;70.5
74441;BME280;62870;54.692;25.284;2022-10-01T00:34:13;1027.4;;;9.8;70.3
74441;BME280;62870;54.692;25.284;2022-10-01T00:39:15;1027.4;;;9.8;69.9
74441;BME280;62870;54.692;25.284;2022-10-01T00:43:50;1027.3;;;9.8;69.5
74441;BME280;62870;54.692;25.284;2022-10-01T00:49:16;1027.3;;;9.5;69.9
74441;BME280;62870;54.692;25.284;2022-10-01T00:54:18;1027.2;;;9.2;71.3
74441;BME280;62870;54.692;25.284;2022-10-01T00:58:41;1027.2;;;9.1;71.2
74441;BME280;62870;54.692;25.284;2022-10-01T01:03:51;1027.1;;;9;71.5
74441;BME280;62870;54.692;25.284;2022-10-01T01:08:29;1027;;;9.1;71.3
74441;BME280;62870;54.692;25.284;2022-10-01T01:14:00;1027;;;8.9;71.6
74441;BME280;62870;54.692;25.284;2022-10-01T01:18:41;1027;;;8.9;72.2
74441;BME280;62870;54.692;25.284;2022-10-01T01:29:20;1027;;;9.2;71.7
74441;BME280;62870;54.692;25.284;2022-10-01T01:34:04;1027.1;;;9.4;71.1
74441;BME280;62870;54.692;25.284;2022-10-01T01:38:40;1027;;;9.4;70.6
74441;BME280;62870;54.692;25.284;2022-10-01T01:44:19;1026.9;;;9.2;71.6
74441;BME280;62870;54.692;25.284;2022-10-01T01:49:03;1026.9;;;9.1;72
74441;BME280;62870;54.692;25.284;2022-10-01T01:54:17;1026.7;;;8.9;72.7
74441;BME280;62870;54.692;25.284;2022-10-01T01:58:29;1026.8;;;9;72.9
74441;BME280;62870;54.692;25.284;2022-10-01T02:03:39;1026.8;;;9;72.8
74441;BME280;62870;54.692;25.284;2022-10-01T02:08:54;1026.7;;;9.1;72.4
74441;BME280;62870;54.692;25.284;2022-10-01T02:14:20;1026.7;;;9.2;72.3
74441;BME280;62870;54.692;25.284;2022-10-01T02:19:25;1026.6;;;9.3;71.4
74441;BME280;62870;54.692;25.284;2022-10-01T02:24:18;1026.6;;;9.3;71.9
74441;BME280;62870;54.692;25.284;2022-10-01T02:29:07;1026.6;;;9.5;71.5
74441;BME280;62870;54.692;25.284;2022-10-01T02:34:03;1026.6;;;9.6;71.3
74441;BME280;62870;54.692;25.284;2022-10-01T02:38:51;1026.6;;;9.7;71.1
74441;BME280;62870;54.692;25.284;2022-10-01T02:44:10;1026.5;;;9.8;70.7
74441;BME280;62870;54.692;25.284;2022-10-01T02:48:41;1026.4;;;9.8;70
74441;BME280;62870;54.692;25.284;2022-10-01T02:53:34;1026.3;;;9.7;70.8
74441;BME280;62870;54.692;25.284;2022-10-01T02:58:31;1026.3;;;9.6;71.3
74441;BME280;62870;54.692;25.284;2022-10-01T03:04:07;1026.2;;;9.5;71.8
74441;BME280;62870;54.692;25.284;2022-10-01T03:09:05;1026.1;;;9.5;71.8
74441;BME280;62870;54.692;25.284;2022-10-01T03:14:05;1026.1;;;9.5;71.6
74441;BME280;62870;54.692;25.284;2022-10-01T03:18:53;1026.1;;;9.5;71.3
74441;BME280;62870;54.692;25.284;2022-10-01T03:24:03;1026.1;;;9.6;70.9
74441;BME280;62870;54.692;25.284;2022-10-01T03:29:19;1026.1;;;9.7;71
74441;BME280;62870;54.692;25.284;2022-10-01T03:33:53;1026.2;;;9.7;71
74441;BME280;62870;54.692;25.284;2022-10-01T03:38:31;1026.1;;;9.7;71
74441;BME280;62870;54.692;25.284;2022-10-01T03:43:31;1026;;;9.6;71.2
74441;BME280;62870;54.692;25.284;2022-10-01T03:48:41;1026;;;9.6;71.9
74441;BME280;62870;54.692;25.284;2022-10-01T03:53:55;1025.9;;;9.6;71.7
74441;BME280;62870;54.692;25.284;2022-10-01T03:58:55;1025.9;;;9.4;73
74441;BME280;62870;54.692;25.284;2022-10-01T04:04:01;1025.9;;;9.4;73.8
74441;BME280;62870;54.692;25.284;2022-10-01T04:09:19;1025.9;;;9.6;73.3
74441;BME280;62870;54.692;25.284;2022-10-01T04:13:53;1026;;;9.8;72.8
74441;BME280;62870;54.692;25.284;2022-10-01T04:19:21;1026;;;9.8;72.2
74441;BME280;62870;54.692;25.284;2022-10-01T04:24:21;1026;;;9.8;72.9
74441;BME280;62870;54.692;25.284;2022-10-01T04:28:43;1026;;;9.8;73
74441;BME280;62870;54.692;25.284;2022-10-01T04:33:31;1025.9;;;9.9;72.9
74441;BME280;62870;54.692;25.284;2022-10-01T04:38:57;1025.9;;;10.1;72.5
74441;BME280;62870;54.692;25.284;2022-10-01T04:44:05;1025.9;;;10.1;72.8
74441;BME280;62870;54.692;25.284;2022-10-01T04:49:19;1025.9;;;10.1;72.5
74441;BME280;62870;54.692;25.284;2022-10-01T04:54:23;1026;;;9.9;73
74441;BME280;62870;54.692;25.284;2022-10-01T04:59:05;1026;;;9.8;73.6
74441;BME280;62870;54.692;25.284;2022-10-01T05:03:51;1026.1;;;9.7;74.3
74441;BME280;62870;54.692;25.284;2022-10-01T05:08:51;1026.1;;;9.7;74.2
74441;BME280;62870;54.692;25.284;2022-10-01T05:14:10;1026.1;;;9.7;74.2
74441;BME280;62870;54.692;25.284;2022-10-01T05:18:41;1026.1;;;9.6;74.7
74441;BME280;62870;54.692;25.284;2022-10-01T05:23:31;1026.2;;;9.7;74.7
74441;BME280;62870;54.692;25.284;2022-10-01T05:28:31;1026.1;;;9.8;74.6
74441;BME280;62870;54.692;25.284;2022-10-01T05:34:19;1026.1;;;9.8;75.1
74441;BME280;62870;54.692;25.284;2022-10-01T05:39:07;1026.1;;;10;74.8
74441;BME280;62870;54.692;25.284;2022-10-01T05:44:05;1026.1;;;10.1;74.1
74441;BME280;62870;54.692;25.284;2022-10-01T05:48:41;1026.1;;;10;73.9
74441;BME280;62870;54.692;25.284;2022-10-01T05:54:07;1026.1;;;10;74.6
74441;BME280;62870;54.692;25.284;2022-10-01T05:59:21;1026.1;;;10;74.8
74441;BME280;62870;54.692;25.284;2022-10-01T06:03:53;1026.1;;;10;74.9
74441;BME280;62870;54.692;25.284;2022-10-01T06:08:33;1026;;;10.2;74.6
74441;BME280;62870;54.692;25.284;2022-10-01T06:13:41;1025.9;;;10.4;74.2
74441;BME280;62870;54.692;25.284;2022-10-01T06:18:41;1025.8;;;10.4;73.9
74441;BME280;62870;54.692;25.284;2022-10-01T06:23:41;1025.8;;;10.5;74
74441;BME280;62870;54.692;25.284;2022-10-01T06:28:53;1025.7;;;10.6;73.7
74441;BME280;62870;54.692;25.284;2022-10-01T06:34:01;1025.8;;;10.5;74.1
74441;BME280;62870;54.692;25.284;2022-10-01T06:39:07;1025.8;;;10.4;75
74441;BME280;62870;54.692;25.284;2022-10-01T06:43:53;1025.8;;;10.5;75.6
74441;BME280;62870;54.692;25.284;2022-10-01T06:49:21;1025.7;;;10.7;74.8
74441;BME280;62870;54.692;25.284;2022-10-01T06:54:03;1025.6;;;10.9;74.3
74441;BME280;62870;54.692;25.284;2022-10-01T06:59:21;1025.6;;;11;74
74441;BME280;62870;54.692;25.284;2022-10-01T07:03:41;1025.6;;;10.9;74.2
74441;BME280;62870;54.692;25.284;2022-10-01T07:08:31;1025.6;;;10.9;74.7
74441;BME280;62870;54.692;25.284;2022-10-01T07:14:21;1025.5;;;10.9;74.9
74441;BME280;62870;54.692;25.284;2022-10-01T07:19:11;1025.5;;;11;74.5
74441;BME280;62870;54.692;25.284;2022-10-01T07:23:55;1025.4;;;11;74.3
74441;BME280;62870;54.692;25.284;2022-10-01T07:29:05;1025.4;;;11;74
74441;BME280;62870;54.692;25.284;2022-10-01T07:34:05;1025.3;;;10.9;75.1
74441;BME280;62870;54.692;25.284;2022-10-01T07:38:43;1025.3;;;10.9;75.6
74441;BME280;62870;54.692;25.284;2022-10-01T07:43:57;1025.3;;;11;75.3
74441;BME280;62870;54.692;25.284;2022-10-01T07:49:23;1025.3;;;10.9;75.4
74441;BME280;62870;54.692;25.284;2022-10-01T07:53:31;1025.3;;;11.1;75.3
74441;BME280;62870;54.692;25.284;2022-10-01T07:58:31;1025.2;;;11.3;74.5
74441;BME280;62870;54.692;25.284;2022-10-01T08:04:09;1025.2;;;11.4;74
74441;BME280;62870;54.692;25.284;2022-10-01T08:09:19;1025.1;;;11.6;74.1
74441;BME280;62870;54.692;25.284;2022-10-01T08:14:23;1025.1;;;11.6;74.4
74441;BME280;62870;54.692;25.284;2022-10-01T08:18:41;1025.1;;;11.5;74.7
74441;BME280;62870;54.692;25.284;2022-10-01T08:24:23;1025;;;11.5;74.6
74441;BME280;62870;54.692;25.284;2022-10-01T08:29:23;1025;;;11.4;75.2
74441;BME280;62870;54.692;25.284;2022-10-01T08:34:07;1025;;;11.3;75.4
74441;BME280;62870;54.692;25.284;2022-10-01T08:39:07;1025;;;11.2;75.7
74441;BME280;62870;54.692;25.284;2022-10-01T08:43:43;1025;;;11.3;75.9
74441;BME280;62870;54.692;25.284;2022-10-01T08:48:39;1025;;;11.4;75.7
74441;BME280;62870;54.692;25.284;2022-10-01T08:53:56;1024.9;;;11.6;75.6
74441;BME280;62870;54.692;25.284;2022-10-01T08:58:34;1024.9;;;11.7;75.4
74441;BME280;62870;54.692;25.284;2022-10-01T09:04:19;1024.9;;;11.7;75.1
74441;BME280;62870;54.692;25.284;2022-10-01T09:09:28;1024.8;;;11.8;74.5
74441;BME280;62870;54.692;25.284;2022-10-01T09:13:49;1024.8;;;11.8;75.1
74441;BME280;62870;54.692;25.284;2022-10-01T09:20:27;1024.8;;;11.7;75.1
74441;BME280;62870;54.692;25.284;2022-10-01T09:24:20;1024.7;;;11.7;75.2
74441;BME280;62870;54.692;25.284;2022-10-01T09:29:21;1024.7;;;11.9;75.2
74441;BME280;62870;54.692;25.284;2022-10-01T09:34:15;1024.7;;;12.2;74.5
74441;BME280;62870;54.692;25.284;2022-10-01T09:38:35;1024.7;;;12.5;73.9
74441;BME280;62870;54.692;25.284;2022-10-01T09:44:22;1024.7;;;12.7;73.2
74441;BME280;62870;54.692;25.284;2022-10-01T09:49:06;1024.8;;;12.8;73.1
74441;BME280;62870;54.692;25.284;2022-10-01T09:54:08;1024.8;;;13;72.2
74441;BME280;62870;54.692;25.284;2022-10-01T09:58:52;1024.9;;;13;71.9
74441;BME280;62870;54.692;25.284;2022-10-01T10:03:52;1024.9;;;13.1;70.4
74441;BME280;62870;54.692;25.284;2022-10-01T10:08:55;1024.9;;;12.9;71.2
74441;BME280;62870;54.692;25.284;2022-10-01T10:14:14;1024.9;;;13.3;71.3
74441;BME280;62870;54.692;25.284;2022-10-01T10:19:21;1024.9;;;13.8;70.1
74441;BME280;62870;54.692;25.284;2022-10-01T10:23:31;1024.8;;;14.1;68
74441;BME280;62870;54.692;25.284;2022-10-01T10:28:47;1024.7;;;14.1;67.2
74441;BME280;62870;54.692;25.284;2022-10-01T10:34:19;1024.6;;;14;67.8
74441;BME280;62870;54.692;25.284;2022-10-01T10:39:21;1024.5;;;14;67.7
74441;BME280;62870;54.692;25.284;2022-10-01T10:44:19;1024.5;;;13.7;66.4
74441;BME280;62870;54.692;25.284;2022-10-01T10:48:56;1024.5;;;13.7;66.4
74441;BME280;62870;54.692;25.284;2022-10-01T10:54:20;1024.5;;;13.7;64.9
74441;BME280;62870;54.692;25.284;2022-10-01T10:59:19;1024.5;;;13.8;65.5
74441;BME280;62870;54.692;25.284;2022-10-01T11:03:43;1024.5;;;13.8;65.3
74441;BME280;62870;54.692;25.284;2022-10-01T11:08:57;1024.4;;;13.8;64.9
74441;BME280;62870;54.692;25.284;2022-10-01T11:13:36;1024.3;;;13.9;64.6
74441;BME280;62870;54.692;25.284;2022-10-01T11:19:09;1024.3;;;13.9;62.8
74441;BME280;62870;54.692;25.284;2022-10-01T11:28:49;1024.3;;;14.5;63.4
74441;BME280;62870;54.692;25.284;2022-10-01T11:33:56;1024.2;;;15.1;61.3
74441;BME280;62870;54.692;25.284;2022-10-01T11:39:09;1024.1;;;15.8;60.2
74441;BME280;62870;54.692;25.284;2022-10-01T11:44:11;1024;;;16.4;56.6
74441;BME280;62870;54.692;25.284;2022-10-01T11:48:56;1024;;;16.9;53.7
74441;BME280;62870;54.692;25.284;2022-10-01T11:54:22;1023.8;;;16.8;53.9
74441;BME280;62870;54.692;25.284;2022-10-01T12:03:34;1023.5;;;17.4;54.5
74441;BME280;62870;54.692;25.284;2022-10-01T12:08:31;1023.4;;;18.5;52.4
74441;BME280;62870;54.692;25.284;2022-10-01T12:13:43;1023.3;;;18.9;49.5
74441;BME280;62870;54.692;25.284;2022-10-01T12:19:23;1023.2;;;19.5;46.9
74441;BME280;62870;54.692;25.284;2022-10-01T12:24:12;1023.2;;;19.6;45.4
74441;BME280;62870;54.692;25.284;2022-10-01T12:34:08;1023.3;;;18.9;48.4
74441;BME280;62870;54.692;25.284;2022-10-01T12:39:03;1023.3;;;19.4;48
74441;BME280;62870;54.692;25.284;2022-10-01T12:44:42;1023.3;;;19.4;48
74441;BME280;62870;54.692;25.284;2022-10-01T12:49:12;1023.3;;;19.3;47
74441;BME280;62870;54.692;25.284;2022-10-01T12:53:45;1023.3;;;19.4;45.5
74441;BME280;62870;54.692;25.284;2022-10-01T12:58:37;1023.3;;;19.8;45.4
74441;BME280;62870;54.692;25.284;2022-10-01T13:04:00;1023.3;;;19.7;46.3
74441;BME280;62870;54.692;25.284;2022-10-01T13:09:23;1023.2;;;19.9;46.5
74441;BME280;62870;54.692;25.284;2022-10-01T13:14:06;1023.2;;;20.4;46.2
74441;BME280;62870;54.692;25.284;2022-10-01T13:18:58;1023.2;;;20.9;44.4
74441;BME280;62870;54.692;25.284;2022-10-01T13:23:45;1023.2;;;21.3;43.7
74441;BME280;62870;54.692;25.284;2022-10-01T13:29:08;1023.1;;;22.2;40.8
74441;BME280;62870;54.692;25.284;2022-10-01T13:34:23;1023;;;23.5;39.1
74441;BME280;62870;54.692;25.284;2022-10-01T13:38:42;1022.9;;;23.9;38.2
74441;BME280;62870;54.692;25.284;2022-10-01T13:43:46;1023;;;23.3;38.9
74441;BME280;62870;54.692;25.284;2022-10-01T13:48:31;1023;;;22.8;37.8
74441;BME280;62870;54.692;25.284;2022-10-01T13:53:33;1022.9;;;23;37.6
74441;BME280;62870;54.692;25.284;2022-10-01T13:58:44;1022.9;;;23.8;35.7
74441;BME280;62870;54.692;25.284;2022-10-01T14:04:08;1022.9;;;23.6;35.3
74441;BME280;62870;54.692;25.284;2022-10-01T14:09:17;1022.8;;;23.2;37.8
74441;BME280;62870;54.692;25.284;2022-10-01T14:14:39;1022.9;;;22.2;39.2
74441;BME280;62870;54.692;25.284;2022-10-01T14:18:51;1023;;;21.7;38.7
74441;BME280;62870;54.692;25.284;2022-10-01T14:24:26;1022.9;;;23.6;34.9
74441;BME280;62870;54.692;25.284;2022-10-01T14:29:39;1022.8;;;25.2;31.6
74441;BME280;62870;54.692;25.284;2022-10-01T14:38:31;1022.7;;;27.5;30.8
74441;BME280;62870;54.692;25.284;2022-10-01T14:43:31;1022.7;;;28.8;29.5
74441;BME280;62870;54.692;25.284;2022-10-01T14:49:20;1022.6;;;28.2;26.9
74441;BME280;62870;54.692;25.284;2022-10-01T14:54:09;1022.6;;;27.7;26.9
74441;BME280;62870;54.692;25.284;2022-10-01T14:59:05;1022.5;;;27.8;27.1
74441;BME280;62870;54.692;25.284;2022-10-01T15:04:18;1022.5;;;28;27.9
74441;BME280;62870;54.692;25.284;2022-10-01T15:09:10;1022.5;;;26.7;29.4
74441;BME280;62870;54.692;25.284;2022-10-01T15:14:00;1022.5;;;25.1;31.3
74441;BME280;62870;54.692;25.284;2022-10-01T15:19:11;1022.4;;;24.7;31.7
74441;BME280;62870;54.692;25.284;2022-10-01T15:23:32;1022.4;;;24;33.9
74441;BME280;62870;54.692;25.284;2022-10-01T15:28:32;1022.4;;;22.7;37.2
74441;BME280;62870;54.692;25.284;2022-10-01T15:33:32;1022.4;;;21.6;40.1
74441;BME280;62870;54.692;25.284;2022-10-01T15:39:30;1022.4;;;20.4;43.2
74441;BME280;62870;54.692;25.284;2022-10-01T15:44:40;1022.3;;;19.4;44.3
74441;BME280;62870;54.692;25.284;2022-10-01T15:49:23;1022.3;;;18.5;46.6
74441;BME280;62870;54.692;25.284;2022-10-01T15:53:41;1022.2;;;17.1;50.6
74441;BME280;62870;54.692;25.284;2022-10-01T15:59:23;1022.3;;;16.1;54
74441;BME280;62870;54.692;25.284;2022-10-01T16:04:21;1022.3;;;15.5;55
74441;BME280;62870;54.692;25.284;2022-10-01T16:08:49;1022.3;;;14.9;56.1
74441;BME280;62870;54.692;25.284;2022-10-01T16:14:20;1022.3;;;14.5;57
74441;BME280;62870;54.692;25.284;2022-10-01T16:18:57;1022.2;;;14.1;59.7
74441;BME280;62870;54.692;25.284;2022-10-01T16:23:42;1022.2;;;13.7;62.3
74441;BME280;62870;54.692;25.284;2022-10-01T16:28:56;1022.2;;;13.4;63.9
74441;BME280;62870;54.692;25.284;2022-10-01T16:33:31;1022.3;;;13.2;64.7
74441;BME280;62870;54.692;25.284;2022-10-01T16:39:21;1022.2;;;13;64
74441;BME280;62870;54.692;25.284;2022-10-01T16:44:08;1022.2;;;12.8;63.9
74441;BME280;62870;54.692;25.284;2022-10-01T16:48:51;1022.2;;;12.6;64.1
74441;BME280;62870;54.692;25.284;2022-10-01T16:54:24;1022.2;;;12.3;67
74441;BME280;62870;54.692;25.284;2022-10-01T16:59:06;1022.2;;;12.1;68.1
74441;BME280;62870;54.692;25.284;2022-10-01T17:04:21;1022.2;;;11.9;68.9
74441;BME280;62870;54.692;25.284;2022-10-01T17:08:41;1022.2;;;12;68.2
74441;BME280;62870;54.692;25.284;2022-10-01T17:13:31;1022.1;;;12.1;67.4
74441;BME280;62870;54.692;25.284;2022-10-01T17:19:19;1022;;;12.2;66.9
74441;BME280;62870;54.692;25.284;2022-10-01T17:24:09;1022;;;12.2;67.7
74441;BME280;62870;54.692;25.284;2022-10-01T17:28:55;1022.1;;;11.9;69.2
74441;BME280;62870;54.692;25.284;2022-10-01T17:34:05;1022;;;11.7;70
74441;BME280;62870;54.692;25.284;2022-10-01T17:39:05;1022;;;11.7;69.2
74441;BME280;62870;54.692;25.284;2022-10-01T17:43:53;1021.9;;;11.7;68.8
74441;BME280;62870;54.692;25.284;2022-10-01T17:49:09;1021.9;;;11.5;69.2
74441;BME280;62870;54.692;25.284;2022-10-01T17:54:19;1021.9;;;11.4;70.8
74441;BME280;62870;54.692;25.284;2022-10-01T17:58:41;1021.9;;;11.4;70.4
74441;BME280;62870;54.692;25.284;2022-10-01T18:03:53;1021.8;;;11.3;71.1
74441;BME280;62870;54.692;25.284;2022-10-01T18:09:15;1021.8;;;11.3;70.6
74441;BME280;62870;54.692;25.284;2022-10-01T18:14:19;1021.8;;;11.4;69.6
74441;BME280;62870;54.692;25.284;2022-10-01T18:19:19;1021.7;;;11.3;69.8
74441;BME280;62870;54.692;25.284;2022-10-01T18:23:52;1021.7;;;11.3;70.3
74441;BME280;62870;54.692;25.284;2022-10-01T18:29:23;1021.7;;;11.2;70.4
74441;BME280;62870;54.692;25.284;2022-10-01T18:34:23;1021.7;;;11.1;70.7
74441;BME280;62870;54.692;25.284;2022-10-01T18:38:58;1021.6;;;10.9;70.8
74441;BME280;62870;54.692;25.284;2022-10-01T18:43:55;1021.6;;;10.7;71.1
74441;BME280;62870;54.692;25.284;2022-10-01T18:48:46;1021.6;;;10.7;70.5
74441;BME280;62870;54.692;25.284;2022-10-01T18:53:58;1021.6;;;10.5;71.6
74441;BME280;62870;54.692;25.284;2022-10-01T18:59:10;1021.6;;;10.3;72
74441;BME280;62870;54.692;25.284;2022-10-01T19:04:47;1021.5;;;10.3;72.2
74441;BME280;62870;54.692;25.284;2022-10-01T19:09:26;1021.6;;;10.4;71.6
74441;BME280;62870;54.692;25.284;2022-10-01T19:14:25;1021.5;;;10.4;71.3
74441;BME280;62870;54.692;25.284;2022-10-01T19:19:52;1021.5;;;10.3;71.4
74441;BME280;62870;54.692;25.284;2022-10-01T19:29:09;1021.4;;;10.4;71.2
74441;BME280;62870;54.692;25.284;2022-10-01T19:34:26;1021.3;;;10.3;71.3
74441;BME280;62870;54.692;25.284;2022-10-01T19:39:07;1021.3;;;10.4;71.4
74441;BME280;62870;54.692;25.284;2022-10-01T19:43:46;1021.3;;;10.3;70.9
74441;BME280;62870;54.692;25.284;2022-10-01T19:49:20;1021.2;;;10.3;71
74441;BME280;62870;54.692;25.284;2022-10-01T19:54:09;1021.2;;;10.2;70.6
74441;BME280;62870;54.692;25.284;2022-10-01T19:59:27;1021.1;;;10.1;71.1
74441;BME280;62870;54.692;25.284;2022-10-01T20:04:04;1021;;;10;71
74441;BME280;62870;54.692;25.284;2022-10-01T20:08:57;1020.9;;;10;71.6
74441;BME280;62870;54.692;25.284;2022-10-01T20:13:47;1020.9;;;10;71.1
74441;BME280;62870;54.692;25.284;2022-10-01T20:18:59;1020.9;;;10;70.4
74441;BME280;62870;54.692;25.284;2022-10-01T20:23:48;1020.9;;;9.8;70.7
74441;BME280;62870;54.692;25.284;2022-10-01T20:28:46;1020.8;;;9.8;70.7
74441;BME280;62870;54.692;25.284;2022-10-01T20:33:46;1020.8;;;9.8;70.4
74441;BME280;62870;54.692;25.284;2022-10-01T20:38:33;1020.8;;;9.8;70.9
74441;BME280;62870;54.692;25.284;2022-10-01T20:44:25;1020.8;;;9.7;71.1
74441;BME280;62870;54.692;25.284;2022-10-01T20:49:16;1020.7;;;9.7;70.6
74441;BME280;62870;54.692;25.284;2022-10-01T20:53:52;1020.8;;;9.6;70.6
74441;BME280;62870;54.692;25.284;2022-10-01T20:59:18;1020.8;;;9.3;70.9
74441;BME280;62870;54.692;25.284;2022-10-01T21:04:05;1020.7;;;9.2;71.6
74441;BME280;62870;54.692;25.284;2022-10-01T21:09:27;1020.7;;;9.3;71.3
74441;BME280;62870;54.692;25.284;2022-10-01T21:13:59;1020.7;;;9.1;71.4
74441;BME280;62870;54.692;25.284;2022-10-01T21:18:46;1020.7;;;9;71.8
74441;BME280;62870;54.692;25.284;2022-10-01T21:23:37;1020.7;;;9;71.5
74441;BME280;62870;54.692;25.284;2022-10-01T21:28:46;1020.7;;;8.8;71.8
74441;BME280;62870;54.692;25.284;2022-10-01T21:33:58;1020.7;;;8.7;72
74441;BME280;62870;54.692;25.284;2022-10-01T21:38:54;1020.7;;;8.8;72.4
74441;BME280;62870;54.692;25.284;2022-10-01T21:45:03;1020.7;;;8.9;71.6
74441;BME280;62870;54.692;25.284;2022-10-01T21:51:00;1020.7;;;9;71.4
74441;BME280;62870;54.692;25.284;2022-10-01T21:53:57;1020.8;;;9;71.1
74441;BME280;62870;54.692;25.284;2022-10-01T21:59:58;1020.7;;;8.9;71
74441;BME280;62870;54.692;25.284;2022-10-01T22:04:23;1020.7;;;8.8;70.9
74441;BME280;62870;54.692;25.284;2022-10-01T22:08:49;1020.7;;;8.6;71.7
74441;BME280;62870;54.692;25.284;2022-10-01T22:13:32;1020.6;;;8.4;72.3
74441;BME280;62870;54.692;25.284;2022-10-01T22:18:33;1020.5;;;8.4;71.9
74441;BME280;62870;54.692;25.284;2022-10-01T22:24:27;1020.4;;;8.3;72.3
74441;BME280;62870;54.692;25.284;2022-10-01T22:29:10;1020.4;;;8.2;72.3
74441;BME280;62870;54.692;25.284;2022-10-01T22:34:11;1020.4;;;8;72.8
74441;BME280;62870;54.692;25.284;2022-10-01T22:39:06;1020.4;;;7.9;73.9
74441;BME280;62870;54.692;25.284;2022-10-01T22:44:10;1020.4;;;7.9;73.3
74441;BME280;62870;54.692;25.284;2022-10-01T22:49:00;1020.4;;;7.8;73
74441;BME280;62870;54.692;25.284;2022-10-01T22:54:17;1020.4;;;7.7;73.1
74441;BME280;62870;54.692;25.284;2022-10-01T23:03:48;1020.2;;;7.5;74.1
74441;BME280;62870;54.692;25.284;2022-10-01T23:08:44;1020.2;;;7.4;74.3
74441;BME280;62870;54.692;25.284;2022-10-01T23:14:53;1020.3;;;7.4;74.8
74441;BME280;62870;54.692;25.284;2022-10-01T23:19:08;1020.3;;;7.5;74.5
74441;BME280;62870;54.692;25.284;2022-10-01T23:23:39;1020.3;;;7.5;74.4
74441;BME280;62870;54.692;25.284;2022-10-01T23:28:58;1020.3;;;7.5;74
74441;BME280;62870;54.692;25.284;2022-10-01T23:33:54;1020.3;;;7.6;74.2
74441;BME280;62870;54.692;25.284;2022-10-01T23:40:21;1020.3;;;7.7;73.7
74441;BME280;62870;54.692;25.284;2022-10-01T23:44:03;1020.1;;;7.8;73.7
74441;BME280;62870;54.692;25.284;2022-10-01T23:48:33;1020.1;;;8;73.2
74441;BME280;62870;54.692;25.284;2022-10-01T23:53:44;1020.1;;;8.1;72.8
74441;BME280;62870;54.692;25.284;2022-10-01T23:58:42;1020.1;;;8.1;72.6
